Hitachimaru — JD2063 — position and weather

sailwx.info

Track history (hours):
 
Tides and Currents Weather Stations Pressure Air Temp Water Temp Dewpoint Dewpoint Depression Visibility Wind Speed Wind Dir Waves Ship Positions

Hitachimaru

Last reported at 2015-Jun-29 23:14 UTC. Time now 2015-Jun-30 03:25 UTC.
Position N 34°35' E 135°28'.

Length 83 m; draft 4.5 m.

Type: Cargo ship. MMSI: 431301756.

Date/timePositionNaut miles runAvg speedWind from/ knotsBaromVisibWave heightAir tempDewpointWater temp
2015-Jun-29 23:14N 34°35' E 135°28'0 0.0
2015-Jun-29 22:26N 34°35' E 135°28'0 0.0
2015-Jun-29 21:20N 34°35' E 135°28'0 0.0
2015-Jun-29 20:32N 34°35' E 135°28'0 0.0
2015-Jun-29 19:32N 34°35' E 135°28'0 0.0
2015-Jun-29 18:32N 34°35' E 135°28'0 0.0
2015-Jun-29 17:32N 34°35' E 135°28'0 0.0
2015-Jun-29 16:32N 34°35' E 135°28'0 0.0
2015-Jun-29 15:26N 34°35' E 135°28'0 0.0
2015-Jun-29 14:19N 34°35' E 135°28'0 0.0
2015-Jun-29 12:13N 34°35' E 135°28'0 0.0
2015-Jun-29 11:31N 34°35' E 135°28'0 0.0
2015-Jun-29 10:19N 34°35' E 135°28'0 0.0
2015-Jun-29 09:31N 34°35' E 135°28'0 0.0
2015-Jun-29 08:31N 34°35' E 135°28'0 0.0
2015-Jun-29 07:31N 34°35' E 135°28'0 0.0
2015-Jun-29 06:31N 34°35' E 135°28'0 0.0
2015-Jun-29 03:31N 34°35' E 135°28'0 0.0
2015-Jun-29 01:13N 34°35' E 135°28'0 0.0
2015-Jun-28 23:25N 34°35' E 135°28'0 0.0
2015-Jun-28 21:31N 34°35' E 135°28'0 0.0
2015-Jun-28 17:19N 34°35' E 135°28'0 0.0
2015-Jun-28 12:19N 34°35' E 135°28'0 0.0
2015-Jun-28 09:13N 34°35' E 135°28'0 0.0
2015-Jun-28 01:31N 34°35' E 135°28'9 9.3
2015-Jun-28 00:33N 34°35' E 135°17'1313.0
2015-Jun-27 23:33N 34°37' E 135°01'1613.0
2015-Jun-27 22:18N 34°40' E 134°42'16 0.6
2015-Jun-26 19:27N 34°37' E 135°01'910.1
2015-Jun-26 18:33N 34°29' E 135°03'1411.9
2015-Jun-26 17:21N 34°15' E 134°59'1011.9
2015-Jun-26 16:32N 34°05' E 135°00'230 9.6
2015-Jun-25 16:33N 34°60' E 139°31'1211.8
2015-Jun-25 15:33N 35°07' E 139°42'1110.5
2015-Jun-25 14:33N 35°18' E 139°44'8 8.2
2015-Jun-25 13:33N 35°25' E 139°47'5 4.9
2015-Jun-25 12:32N 35°22' E 139°51'0 0.0
2015-Jun-25 11:32N 35°22' E 139°51'0 0.0
2015-Jun-25 10:32N 35°22' E 139°51'0 0.0
2015-Jun-25 09:32N 35°22' E 139°51'0 0.0
2015-Jun-25 08:31N 35°22' E 139°51'0 0.0
2015-Jun-25 07:31N 35°22' E 139°51'0 0.0
2015-Jun-25 06:31N 35°22' E 139°51'0 0.0
2015-Jun-25 05:31N 35°22' E 139°51'0 0.0
2015-Jun-25 04:31N 35°22' E 139°51'0 0.0
2015-Jun-25 03:31N 35°22' E 139°51'0 0.0
2015-Jun-25 02:31N 35°22' E 139°51'0 0.0
2015-Jun-25 01:31N 35°22' E 139°51'0 0.0
2015-Jun-25 00:31N 35°22' E 139°51'0 0.0
2015-Jun-24 23:31N 35°22' E 139°51'0 0.0
2015-Jun-24 22:31N 35°22' E 139°51'0 0.0
2015-Jun-24 21:31N 35°22' E 139°51'1 0.5
2015-Jun-24 20:34N 35°22' E 139°50'1010.1
2015-Jun-24 19:33N 35°32' E 139°53'9 8.8
2015-Jun-24 18:29N 35°40' E 139°57'0 0.0
2015-Jun-24 17:23N 35°40' E 139°57'0 0.0
2015-Jun-24 16:29N 35°40' E 139°57'0 0.0
2015-Jun-24 15:29N 35°40' E 139°57'0 0.0
2015-Jun-24 14:17N 35°40' E 139°57'0 0.0
2015-Jun-24 13:23N 35°40' E 139°57'0 0.2
2015-Jun-24 12:33N 35°40' E 139°57'3 3.2
2015-Jun-24 11:32N 35°37' E 139°58'0 0.0
2015-Jun-24 10:26N 35°37' E 139°58'0 0.0
2015-Jun-24 09:32N 35°37' E 139°58'0 0.0
2015-Jun-24 08:32N 35°37' E 139°58'0 0.0
2015-Jun-24 07:32N 35°37' E 139°58'0 0.0
2015-Jun-24 06:32N 35°37' E 139°58'0 0.0
2015-Jun-24 05:32N 35°37' E 139°58'0 0.0
2015-Jun-24 04:32N 35°37' E 139°58'0 0.1
2015-Jun-24 03:32N 35°37' E 139°58'0 0.0
2015-Jun-24 02:20N 35°37' E 139°58'0 0.0
2015-Jun-24 01:32N 35°37' E 139°58'0 0.0
2015-Jun-24 00:32N 35°37' E 139°58'0 0.0
2015-Jun-23 23:26N 35°37' E 139°58'0 0.0
2015-Jun-23 22:20N 35°37' E 139°58'0 0.0
2015-Jun-23 21:32N 35°37' E 139°58'0 0.0
2015-Jun-23 20:32N 35°37' E 139°58'0 0.0
2015-Jun-23 19:33N 35°37' E 139°58'4 8.9
2015-Jun-23 19:05N 35°33' E 139°55'258 5.3
2015-Jun-21 18:32N 34°03' E 135°00'1211.9
2015-Jun-21 17:30N 34°15' E 134°59'1210.3
2015-Jun-21 16:21N 34°26' E 135°06'911.7
2015-Jun-21 15:33N 34°32' E 135°15'1010.4
2015-Jun-21 14:33N 34°35' E 135°26'1 0.5
2015-Jun-21 12:10N 34°34' E 135°27'3 4.2
2015-Jun-21 11:33N 34°36' E 135°25'6 5.8
2015-Jun-21 10:31N 34°33' E 135°18'0 0.1
2015-Jun-21 09:31N 34°33' E 135°18'0 0.0
2015-Jun-21 08:31N 34°33' E 135°18'0 0.0
2015-Jun-21 07:31N 34°33' E 135°18'0 0.0
2015-Jun-21 05:31N 34°33' E 135°18'0 0.0
2015-Jun-21 04:31N 34°33' E 135°18'0 0.0
2015-Jun-21 03:31N 34°33' E 135°18'0 0.0
2015-Jun-21 02:31N 34°33' E 135°18'0 0.0
2015-Jun-21 01:31N 34°33' E 135°18'0 0.0
2015-Jun-21 00:25N 34°33' E 135°18'0 0.0
2015-Jun-20 23:31N 34°33' E 135°18'0 0.0
2015-Jun-20 22:13N 34°33' E 135°18'4 6.8
2015-Jun-20 21:33N 34°36' E 135°22'4 0.3
2015-Jun-20 07:12N 34°34' E 135°27'1 1.6
2015-Jun-20 06:33N 34°35' E 135°27'1 0.8
2015-Jun-20 05:32N 34°35' E 135°28'0 0.0
2015-Jun-20 04:32N 34°35' E 135°28'0 0.0
2015-Jun-20 03:32N 34°35' E 135°28'0 0.0
2015-Jun-20 02:32N 34°35' E 135°28'0 0.0
2015-Jun-19 23:26N 34°35' E 135°28'  
Track history (hours):
 
Tides and Currents Weather Stations Pressure Air Temp Water Temp Dewpoint Dewpoint Depression Visibility Wind Speed Wind Dir Waves Ship Positions

Hitachimaru

Last reported at 2015-Jun-29 23:14 UTC. Time now 2015-Jun-30 03:25 UTC.
Position N 34°35' E 135°28'.

Length 83 m; draft 4.5 m.

Type: Cargo ship. MMSI: 431301756.

Date/timePositionNaut miles runAvg speedWind from/ knotsBaromVisibWave heightAir tempDewpointWater temp
2015-Jun-29 23:14N 34°35' E 135°28'0 0.0
2015-Jun-29 22:26N 34°35' E 135°28'0 0.0
2015-Jun-29 21:20N 34°35' E 135°28'0 0.0
2015-Jun-29 20:32N 34°35' E 135°28'0 0.0
2015-Jun-29 19:32N 34°35' E 135°28'0 0.0
2015-Jun-29 18:32N 34°35' E 135°28'0 0.0
2015-Jun-29 17:32N 34°35' E 135°28'0 0.0
2015-Jun-29 16:32N 34°35' E 135°28'0 0.0
2015-Jun-29 15:26N 34°35' E 135°28'0 0.0
2015-Jun-29 14:19N 34°35' E 135°28'0 0.0
2015-Jun-29 12:13N 34°35' E 135°28'0 0.0
2015-Jun-29 11:31N 34°35' E 135°28'0 0.0
2015-Jun-29 10:19N 34°35' E 135°28'0 0.0
2015-Jun-29 09:31N 34°35' E 135°28'0 0.0
2015-Jun-29 08:31N 34°35' E 135°28'0 0.0
2015-Jun-29 07:31N 34°35' E 135°28'0 0.0
2015-Jun-29 06:31N 34°35' E 135°28'0 0.0
2015-Jun-29 03:31N 34°35' E 135°28'0 0.0
2015-Jun-29 01:13N 34°35' E 135°28'0 0.0
2015-Jun-28 23:25N 34°35' E 135°28'0 0.0
2015-Jun-28 21:31N 34°35' E 135°28'0 0.0
2015-Jun-28 17:19N 34°35' E 135°28'0 0.0
2015-Jun-28 12:19N 34°35' E 135°28'0 0.0
2015-Jun-28 09:13N 34°35' E 135°28'0 0.0
2015-Jun-28 01:31N 34°35' E 135°28'9 9.3
2015-Jun-28 00:33N 34°35' E 135°17'1313.0
2015-Jun-27 23:33N 34°37' E 135°01'1613.0
2015-Jun-27 22:18N 34°40' E 134°42'16 0.6
2015-Jun-26 19:27N 34°37' E 135°01'910.1
2015-Jun-26 18:33N 34°29' E 135°03'1411.9
2015-Jun-26 17:21N 34°15' E 134°59'1011.9
2015-Jun-26 16:32N 34°05' E 135°00'230 9.6
2015-Jun-25 16:33N 34°60' E 139°31'1211.8
2015-Jun-25 15:33N 35°07' E 139°42'1110.5
2015-Jun-25 14:33N 35°18' E 139°44'8 8.2
2015-Jun-25 13:33N 35°25' E 139°47'5 4.9
2015-Jun-25 12:32N 35°22' E 139°51'0 0.0
2015-Jun-25 11:32N 35°22' E 139°51'0 0.0
2015-Jun-25 10:32N 35°22' E 139°51'0 0.0
2015-Jun-25 09:32N 35°22' E 139°51'0 0.0
2015-Jun-25 08:31N 35°22' E 139°51'0 0.0
2015-Jun-25 07:31N 35°22' E 139°51'0 0.0
2015-Jun-25 06:31N 35°22' E 139°51'0 0.0
2015-Jun-25 05:31N 35°22' E 139°51'0 0.0
2015-Jun-25 04:31N 35°22' E 139°51'0 0.0
2015-Jun-25 03:31N 35°22' E 139°51'0 0.0
2015-Jun-25 02:31N 35°22' E 139°51'0 0.0
2015-Jun-25 01:31N 35°22' E 139°51'0 0.0
2015-Jun-25 00:31N 35°22' E 139°51'0 0.0
2015-Jun-24 23:31N 35°22' E 139°51'0 0.0
2015-Jun-24 22:31N 35°22' E 139°51'0 0.0
2015-Jun-24 21:31N 35°22' E 139°51'1 0.5
2015-Jun-24 20:34N 35°22' E 139°50'1010.1
2015-Jun-24 19:33N 35°32' E 139°53'9 8.8
2015-Jun-24 18:29N 35°40' E 139°57'0 0.0
2015-Jun-24 17:23N 35°40' E 139°57'0 0.0
2015-Jun-24 16:29N 35°40' E 139°57'0 0.0
2015-Jun-24 15:29N 35°40' E 139°57'0 0.0
2015-Jun-24 14:17N 35°40' E 139°57'0 0.0
2015-Jun-24 13:23N 35°40' E 139°57'0 0.2
2015-Jun-24 12:33N 35°40' E 139°57'3 3.2
2015-Jun-24 11:32N 35°37' E 139°58'0 0.0
2015-Jun-24 10:26N 35°37' E 139°58'0 0.0
2015-Jun-24 09:32N 35°37' E 139°58'0 0.0
2015-Jun-24 08:32N 35°37' E 139°58'0 0.0
2015-Jun-24 07:32N 35°37' E 139°58'0 0.0
2015-Jun-24 06:32N 35°37' E 139°58'0 0.0
2015-Jun-24 05:32N 35°37' E 139°58'0 0.0
2015-Jun-24 04:32N 35°37' E 139°58'0 0.1
2015-Jun-24 03:32N 35°37' E 139°58'0 0.0
2015-Jun-24 02:20N 35°37' E 139°58'0 0.0
2015-Jun-24 01:32N 35°37' E 139°58'0 0.0
2015-Jun-24 00:32N 35°37' E 139°58'0 0.0
2015-Jun-23 23:26N 35°37' E 139°58'0 0.0
2015-Jun-23 22:20N 35°37' E 139°58'0 0.0
2015-Jun-23 21:32N 35°37' E 139°58'0 0.0
2015-Jun-23 20:32N 35°37' E 139°58'0 0.0
2015-Jun-23 19:33N 35°37' E 139°58'4 8.9
2015-Jun-23 19:05N 35°33' E 139°55'258 5.3
2015-Jun-21 18:32N 34°03' E 135°00'1211.9
2015-Jun-21 17:30N 34°15' E 134°59'1210.3
2015-Jun-21 16:21N 34°26' E 135°06'911.7
2015-Jun-21 15:33N 34°32' E 135°15'1010.4
2015-Jun-21 14:33N 34°35' E 135°26'1 0.5
2015-Jun-21 12:10N 34°34' E 135°27'3 4.2
2015-Jun-21 11:33N 34°36' E 135°25'6 5.8
2015-Jun-21 10:31N 34°33' E 135°18'0 0.1
2015-Jun-21 09:31N 34°33' E 135°18'0 0.0
2015-Jun-21 08:31N 34°33' E 135°18'0 0.0
2015-Jun-21 07:31N 34°33' E 135°18'0 0.0
2015-Jun-21 05:31N 34°33' E 135°18'0 0.0
2015-Jun-21 04:31N 34°33' E 135°18'0 0.0
2015-Jun-21 03:31N 34°33' E 135°18'0 0.0
2015-Jun-21 02:31N 34°33' E 135°18'0 0.0
2015-Jun-21 01:31N 34°33' E 135°18'0 0.0
2015-Jun-21 00:25N 34°33' E 135°18'0 0.0
2015-Jun-20 23:31N 34°33' E 135°18'0 0.0
2015-Jun-20 22:13N 34°33' E 135°18'4 6.8
2015-Jun-20 21:33N 34°36' E 135°22'4 0.3
2015-Jun-20 07:12N 34°34' E 135°27'1 1.6
2015-Jun-20 06:33N 34°35' E 135°27'1 0.8
2015-Jun-20 05:32N 34°35' E 135°28'0 0.0
2015-Jun-20 04:32N 34°35' E 135°28'0 0.0
2015-Jun-20 03:32N 34°35' E 135°28'0 0.0
2015-Jun-20 02:32N 34°35' E 135°28'0 0.0
2015-Jun-19 23:26N 34°35' E 135°28'  

Dump ship's entire track history